createdAt,value
2023-02-08T00:00:25.042Z,99.99
2023-02-08T00:01:25.060Z,99.99
2023-02-08T00:02:25.047Z,99.99
2023-02-08T00:03:25.055Z,99.99
2023-02-08T00:04:25.018Z,99.99
2023-02-08T00:05:24.999Z,99.99
2023-02-08T00:06:25.020Z,99.99
2023-02-08T00:07:24.988Z,99.99
2023-02-08T00:08:26.127Z,99.99
2023-02-08T00:09:26.120Z,99.99
2023-02-08T00:10:26.117Z,99.99
2023-02-08T00:11:26.132Z,99.99
2023-02-08T00:12:26.094Z,99.99
2023-02-08T00:13:26.090Z,99.99
2023-02-08T00:14:26.099Z,99.99
2023-02-08T00:15:26.084Z,99.99
2023-02-08T00:16:26.092Z,99.99
2023-02-08T00:17:26.069Z,99.99
2023-02-08T00:18:26.056Z,99.99
2023-02-08T00:19:26.053Z,99.99
2023-02-08T00:20:26.038Z,99.99
2023-02-08T00:21:26.054Z,99.99
2023-02-08T00:22:26.023Z,99.99
2023-02-08T00:23:26.023Z,99.99
2023-02-08T00:24:26.013Z,99.99
2023-02-08T00:25:26.007Z,99.99
2023-02-08T00:26:26.018Z,99.99
2023-02-08T00:27:25.993Z,99.99
2023-02-08T00:28:26.045Z,99.99
2023-02-08T00:29:25.977Z,99.99
2023-02-08T00:30:25.970Z,99.99
2023-02-08T00:31:26.082Z,99.99
2023-02-08T00:32:25.958Z,99.99
2023-02-08T00:33:25.946Z,99.99
2023-02-08T00:34:25.941Z,99.99
2023-02-08T00:35:25.926Z,99.99
2023-02-08T00:36:25.942Z,99.99
2023-02-08T00:37:25.916Z,99.99
2023-02-08T00:38:25.912Z,99.99
2023-02-08T00:39:25.901Z,99.99
2023-02-08T00:40:25.895Z,99.99
2023-02-08T00:41:25.908Z,99.99
2023-02-08T00:42:25.874Z,99.99
2023-02-08T00:43:25.870Z,99.99
2023-02-08T00:44:25.860Z,99.99
2023-02-08T00:45:25.856Z,99.99
2023-02-08T00:46:25.887Z,99.99
2023-02-08T00:47:25.839Z,99.99
2023-02-08T00:48:25.833Z,99.99
2023-02-08T00:49:25.828Z,99.99
2023-02-08T00:50:25.826Z,99.99
2023-02-08T00:51:25.831Z,99.99
2023-02-08T00:52:25.801Z,99.99
2023-02-08T00:53:25.801Z,99.99
2023-02-08T00:54:25.791Z,99.99
2023-02-08T00:55:25.775Z,99.99
2023-02-08T00:56:25.801Z,99.99
2023-02-08T00:57:25.767Z,99.99
2023-02-08T00:58:25.764Z,99.99
2023-02-08T00:59:25.749Z,99.99
2023-02-08T01:00:25.774Z,99.99
2023-02-08T01:01:25.759Z,99.99
2023-02-08T01:02:25.732Z,99.99
2023-02-08T01:03:25.735Z,99.99
2023-02-08T01:04:25.711Z,99.99
2023-02-08T01:05:25.711Z,99.99
2023-02-08T01:06:25.733Z,99.99
2023-02-08T01:07:25.692Z,99.99
2023-02-08T01:08:25.685Z,99.99
2023-02-08T01:09:25.681Z,99.99
2023-02-08T01:10:25.673Z,99.99
2023-02-08T01:11:25.690Z,99.99
2023-02-08T01:12:25.659Z,99.99
2023-02-08T01:13:25.651Z,99.99
2023-02-08T01:14:25.644Z,99.99
2023-02-08T01:15:25.640Z,99.99
2023-02-08T01:16:25.758Z,99.99
2023-02-08T01:17:25.627Z,99.99
2023-02-08T01:18:25.617Z,99.99
2023-02-08T01:19:25.609Z,99.99
2023-02-08T01:20:25.611Z,99.99
2023-02-08T01:21:25.619Z,99.99
2023-02-08T01:22:25.585Z,99.99
2023-02-08T01:23:25.586Z,99.99
2023-02-08T01:24:25.577Z,99.99
2023-02-08T01:25:25.563Z,99.99
2023-02-08T01:26:25.583Z,99.99
2023-02-08T01:27:25.581Z,99.99
2023-02-08T01:28:25.590Z,99.99
2023-02-08T01:29:25.538Z,99.99
2023-02-08T01:30:25.589Z,99.99
2023-02-08T01:31:25.626Z,99.99
2023-02-08T01:32:25.516Z,99.99
2023-02-08T01:33:25.508Z,99.99
2023-02-08T01:34:25.502Z,99.99
2023-02-08T01:35:25.496Z,99.99
2023-02-08T01:36:25.519Z,99.99
2023-02-08T01:37:25.468Z,99.99
2023-02-08T01:38:25.469Z,99.99
2023-02-08T01:39:25.469Z,99.99
2023-02-08T01:40:25.463Z,99.99
2023-02-08T01:41:25.478Z,99.99
2023-02-08T01:42:25.438Z,99.99
2023-02-08T01:43:25.429Z,99.99
2023-02-08T01:44:25.424Z,99.99
2023-02-08T01:45:25.518Z,99.99
2023-02-08T01:46:25.407Z,99.99
2023-02-08T01:47:25.429Z,99.99
2023-02-08T01:48:25.395Z,99.99
2023-02-08T01:49:25.392Z,99.99
2023-02-08T01:50:25.383Z,99.99
2023-02-08T01:51:25.382Z,99.99
2023-02-08T01:52:25.403Z,99.99
2023-02-08T01:53:25.357Z,99.99
2023-02-08T01:54:25.360Z,99.99
2023-02-08T01:55:25.350Z,99.99
2023-02-08T01:56:25.334Z,99.99
2023-02-08T01:57:25.360Z,99.99
2023-02-08T01:58:25.326Z,99.99
2023-02-08T01:59:25.326Z,99.99
2023-02-08T02:00:25.308Z,99.99
2023-02-08T02:01:25.330Z,99.99
2023-02-08T02:02:25.321Z,99.99
2023-02-08T02:03:25.292Z,99.99
2023-02-08T02:04:25.423Z,99.99
2023-02-08T02:05:25.267Z,99.99
2023-02-08T02:06:25.269Z,99.99
2023-02-08T02:07:25.288Z,99.99
2023-02-08T02:08:25.254Z,99.99
2023-02-08T02:09:25.248Z,99.99
2023-02-08T02:10:25.242Z,99.99
2023-02-08T02:11:25.239Z,99.99
2023-02-08T02:12:25.248Z,99.99
2023-02-08T02:13:25.214Z,99.99
2023-02-08T02:14:25.218Z,99.99
2023-02-08T02:15:25.209Z,99.99
2023-02-08T02:16:25.230Z,99.99
2023-02-08T02:17:25.218Z,99.99
2023-02-08T02:18:25.180Z,99.99
2023-02-08T02:19:25.178Z,99.99
2023-02-08T02:20:25.180Z,99.99
2023-02-08T02:21:25.159Z,99.99
2023-02-08T02:22:25.213Z,99.99
2023-02-08T02:23:25.147Z,99.99
2023-02-08T02:24:25.140Z,99.99
2023-02-08T02:25:25.128Z,99.99
2023-02-08T02:26:25.124Z,99.99
2023-02-08T02:27:25.147Z,99.99
2023-02-08T02:28:25.143Z,99.99
2023-02-08T02:29:25.108Z,99.99
2023-02-08T02:30:25.127Z,99.99
2023-02-08T02:31:25.152Z,99.99
2023-02-08T02:32:25.113Z,99.99
2023-02-08T02:33:25.084Z,99.99
2023-02-08T02:34:25.089Z,99.99
2023-02-08T02:35:25.074Z,99.99
2023-02-08T02:36:25.063Z,99.99
2023-02-08T02:37:25.074Z,99.99
2023-02-08T02:38:25.048Z,99.99
2023-02-08T02:39:25.040Z,99.99
2023-02-08T02:40:25.035Z,99.99
2023-02-08T02:41:25.025Z,99.99
2023-02-08T02:42:25.046Z,99.99
2023-02-08T02:43:25.026Z,99.99
2023-02-08T02:44:25.002Z,99.99
2023-02-08T02:45:25.116Z,99.99
2023-02-08T02:46:24.998Z,99.99
2023-02-08T02:47:25.011Z,99.99
2023-02-08T02:48:24.973Z,99.99
2023-02-08T02:49:24.964Z,99.99
2023-02-08T02:50:24.954Z,99.99
2023-02-08T02:51:24.956Z,99.99
2023-02-08T02:52:24.976Z,99.99
2023-02-08T02:53:24.939Z,99.99
2023-02-08T02:54:24.933Z,99.99
2023-02-08T02:55:24.922Z,99.99
2023-02-08T02:56:24.916Z,99.99
2023-02-08T02:57:24.908Z,99.99
2023-02-08T02:58:24.954Z,99.99
2023-02-08T02:59:24.906Z,99.99
2023-02-08T03:00:24.896Z,99.99
2023-02-08T03:01:24.918Z,99.99
2023-02-08T03:02:24.889Z,99.99
2023-02-08T03:03:24.891Z,99.99
2023-02-08T03:04:24.875Z,99.99
2023-02-08T03:05:24.853Z,99.99
2023-02-08T03:06:24.855Z,99.99
2023-02-08T03:07:24.845Z,99.99
2023-02-08T03:08:24.867Z,99.99
2023-02-08T03:09:24.833Z,99.99
2023-02-08T03:10:24.827Z,99.99
2023-02-08T03:11:24.813Z,99.99
2023-02-08T03:12:24.803Z,99.99
2023-02-08T03:13:24.823Z,99.99
2023-02-08T03:14:24.792Z,99.99
2023-02-08T03:15:24.791Z,99.99
2023-02-08T03:16:24.795Z,99.99
2023-02-08T03:17:24.782Z,99.99
2023-02-08T03:18:24.799Z,99.99
2023-02-08T03:19:24.761Z,99.99
2023-02-08T03:20:24.758Z,99.99
2023-02-08T03:21:24.746Z,99.99
2023-02-08T03:22:24.739Z,99.99
2023-02-08T03:23:24.761Z,99.99
2023-02-08T03:24:24.718Z,99.99
2023-02-08T03:25:24.713Z,99.99
2023-02-08T03:26:24.708Z,99.99
2023-02-08T03:27:24.700Z,99.99
2023-02-08T03:28:24.725Z,99.99
2023-02-08T03:29:24.685Z,99.99
2023-02-08T03:30:24.678Z,99.99
2023-02-08T03:31:24.749Z,99.99
2023-02-08T03:32:24.672Z,99.99
2023-02-08T03:33:24.684Z,99.99
2023-02-08T03:34:24.656Z,99.99
2023-02-08T03:35:24.641Z,99.99
2023-02-08T03:36:24.640Z,99.99
2023-02-08T03:37:24.625Z,99.99
2023-02-08T03:38:24.650Z,99.99
2023-02-08T03:39:24.618Z,99.99
2023-02-08T03:40:24.607Z,99.99
2023-02-08T03:41:24.592Z,99.99
2023-02-08T03:42:25.590Z,99.99
2023-02-08T03:43:24.633Z,99.99
2023-02-08T03:44:24.590Z,99.99
2023-02-08T03:45:24.577Z,99.99
2023-02-08T03:46:24.581Z,99.99
2023-02-08T03:47:24.564Z,99.99
2023-02-08T03:48:24.576Z,99.99
2023-02-08T03:49:24.545Z,99.99
2023-02-08T03:50:24.542Z,99.99
2023-02-08T03:51:24.535Z,99.99
2023-02-08T03:52:24.530Z,99.99
2023-02-08T03:53:24.548Z,99.99
2023-02-08T03:54:24.507Z,99.99
2023-02-08T03:55:24.506Z,99.99
2023-02-08T03:56:24.500Z,99.99
2023-02-08T03:57:24.487Z,99.99
2023-02-08T03:58:24.513Z,99.99
2023-02-08T03:59:24.473Z,99.99
2023-02-08T04:00:24.493Z,99.99
2023-02-08T04:01:24.501Z,99.99
2023-02-08T04:02:24.498Z,99.99
2023-02-08T04:03:24.474Z,99.99
2023-02-08T04:04:24.441Z,99.99
2023-02-08T04:05:24.432Z,99.99
2023-02-08T04:06:24.431Z,99.99
2023-02-08T04:07:24.420Z,99.99
2023-02-08T04:08:24.440Z,99.99
2023-02-08T04:09:24.403Z,99.99
2023-02-08T04:10:24.389Z,99.99
2023-02-08T04:11:25.389Z,99.99
2023-02-08T04:12:24.388Z,99.99
2023-02-08T04:13:24.404Z,99.99
2023-02-08T04:14:24.372Z,99.99
2023-02-08T04:15:24.367Z,99.99
2023-02-08T04:16:24.363Z,99.99
2023-02-08T04:17:24.367Z,99.99
2023-02-08T04:18:24.372Z,99.99
2023-02-08T04:19:24.374Z,99.99
2023-02-08T04:20:24.333Z,99.99
2023-02-08T04:21:24.322Z,99.99
2023-02-08T04:22:24.318Z,99.99
2023-02-08T04:23:24.411Z,99.99
2023-02-08T04:24:24.299Z,99.99
2023-02-08T04:25:24.296Z,99.99
2023-02-08T04:26:24.283Z,99.99
2023-02-08T04:27:24.286Z,99.99
2023-02-08T04:28:24.436Z,99.99
2023-02-08T04:29:24.274Z,99.99
2023-02-08T04:30:24.264Z,99.99
2023-02-08T04:31:24.333Z,99.99
2023-02-08T04:32:24.241Z,99.99
2023-02-08T04:33:25.269Z,99.99
2023-02-08T04:34:24.226Z,99.99
2023-02-08T04:35:24.226Z,99.99
2023-02-08T04:36:24.225Z,99.99
2023-02-08T04:37:24.211Z,99.99
2023-02-08T04:38:24.205Z,99.99
2023-02-08T04:39:24.261Z,99.99
2023-02-08T04:40:24.191Z,99.99
2023-02-08T04:41:24.186Z,99.99
2023-02-08T04:42:24.175Z,99.99
2023-02-08T04:43:24.179Z,99.99
2023-02-08T04:44:24.208Z,99.99
2023-02-08T04:45:24.167Z,99.99
2023-02-08T04:46:24.236Z,99.99
2023-02-08T04:47:24.141Z,99.99
2023-02-08T04:48:24.144Z,99.99
2023-02-08T04:49:24.154Z,99.99
2023-02-08T04:50:24.124Z,99.99
2023-02-08T04:51:24.106Z,99.99
2023-02-08T04:52:24.098Z,99.99
2023-02-08T04:53:24.093Z,99.99
2023-02-08T04:54:24.113Z,99.99
2023-02-08T04:55:24.076Z,99.99
2023-02-08T04:56:24.075Z,99.99
2023-02-08T04:57:24.061Z,99.99
2023-02-08T04:58:24.054Z,99.99
2023-02-08T04:59:24.083Z,99.99
2023-02-08T05:00:24.043Z,99.99
2023-02-08T05:01:24.043Z,99.99
2023-02-08T05:02:24.027Z,99.99
2023-02-08T05:03:24.016Z,99.99
2023-02-08T05:04:24.031Z,99.99
2023-02-08T05:05:24.059Z,99.99
2023-02-08T05:06:23.992Z,99.99
2023-02-08T05:07:23.983Z,99.99
2023-02-08T05:08:23.984Z,99.99
2023-02-08T05:09:24.004Z,99.99
2023-02-08T05:10:23.983Z,99.99
2023-02-08T05:11:23.953Z,99.99
2023-02-08T05:12:23.942Z,99.99
2023-02-08T05:13:23.942Z,99.99
2023-02-08T05:14:23.968Z,99.99
2023-02-08T05:15:23.924Z,99.99
2023-02-08T05:16:23.971Z,99.99
2023-02-08T05:17:23.910Z,99.99
2023-02-08T05:18:23.901Z,99.99
2023-02-08T05:19:23.916Z,99.99
2023-02-08T05:20:23.886Z,99.99
2023-02-08T05:21:23.906Z,99.99
2023-02-08T05:22:23.887Z,99.99
2023-02-08T05:23:23.866Z,99.99
2023-02-08T05:24:23.885Z,99.99
2023-02-08T05:25:23.851Z,99.99
2023-02-08T05:26:23.856Z,99.99
2023-02-08T05:27:23.836Z,99.99
2023-02-08T05:28:23.884Z,99.99
2023-02-08T05:29:23.853Z,99.99
2023-02-08T05:30:23.811Z,99.99
2023-02-08T05:31:23.950Z,99.99
2023-02-08T05:32:23.809Z,99.99
2023-02-08T05:33:23.790Z,99.99
2023-02-08T05:34:23.809Z,99.99
2023-02-08T05:35:23.777Z,99.99
2023-02-08T05:36:23.770Z,99.99
2023-02-08T05:37:23.760Z,99.99
2023-02-08T05:38:23.749Z,99.99
2023-02-08T05:39:23.755Z,99.99
2023-02-08T05:40:23.766Z,99.99
2023-02-08T05:41:23.733Z,99.99
2023-02-08T05:42:23.729Z,99.99
2023-02-08T05:43:23.713Z,99.99
2023-02-08T05:44:23.723Z,99.99
2023-02-08T05:45:23.727Z,99.99
2023-02-08T05:46:23.710Z,99.99
2023-02-08T05:47:23.688Z,99.99
2023-02-08T05:48:23.689Z,99.99
2023-02-08T05:49:23.675Z,99.99
2023-02-08T05:50:23.689Z,99.99
2023-02-08T05:51:23.660Z,99.99
2023-02-08T05:52:23.654Z,99.99
2023-02-08T05:53:23.652Z,99.99
2023-02-08T05:54:23.645Z,99.99
2023-02-08T05:55:23.671Z,99.99
2023-02-08T05:56:23.625Z,99.99
2023-02-08T05:57:23.619Z,99.99
2023-02-08T05:58:23.612Z,99.99
2023-02-08T05:59:23.603Z,99.99
2023-02-08T06:00:23.620Z,99.99
2023-02-08T06:01:23.588Z,99.99
2023-02-08T06:02:23.585Z,99.99
2023-02-08T06:03:23.614Z,99.99
2023-02-08T06:04:23.645Z,99.99
2023-02-08T06:05:23.585Z,99.99
2023-02-08T06:06:23.556Z,99.99
2023-02-08T06:07:23.553Z,99.99
2023-02-08T06:08:23.545Z,99.99
2023-02-08T06:09:23.537Z,99.99
2023-02-08T06:10:23.557Z,99.99
2023-02-08T06:11:23.525Z,99.99
2023-02-08T06:12:23.519Z,99.99
2023-02-08T06:13:23.517Z,99.99
2023-02-08T06:14:23.504Z,99.99
2023-02-08T06:15:23.520Z,99.99
2023-02-08T06:16:23.560Z,99.99
2023-02-08T06:17:23.475Z,99.99
2023-02-08T06:18:23.481Z,99.99
2023-02-08T06:19:23.470Z,99.99
2023-02-08T06:20:23.479Z,99.99
2023-02-08T06:21:24.575Z,99.99
2023-02-08T06:22:24.446Z,99.99
2023-02-08T06:23:23.440Z,99.99
2023-02-08T06:24:23.430Z,99.99
2023-02-08T06:25:23.449Z,99.99
2023-02-08T06:26:23.421Z,99.99
2023-02-08T06:27:23.405Z,99.99
2023-02-08T06:28:23.449Z,99.99
2023-02-08T06:29:23.385Z,99.99
2023-02-08T06:30:23.417Z,99.99
2023-02-08T06:31:23.417Z,99.99
2023-02-08T06:32:23.382Z,99.99
2023-02-08T06:33:23.371Z,99.99
2023-02-08T06:34:23.355Z,99.99
2023-02-08T06:35:23.385Z,99.99
2023-02-08T06:36:23.346Z,99.99
2023-02-08T06:37:23.351Z,99.99
2023-02-08T06:38:23.323Z,99.99
2023-02-08T06:39:23.327Z,99.99
2023-02-08T06:40:23.345Z,99.99
2023-02-08T06:41:23.303Z,99.99
2023-02-08T06:42:23.289Z,99.99
2023-02-08T06:43:23.286Z,99.99
2023-02-08T06:44:23.281Z,99.99
2023-02-08T06:45:23.308Z,99.99
2023-02-08T06:46:23.268Z,99.99
2023-02-08T06:47:23.256Z,99.99
2023-02-08T06:48:23.256Z,99.99
2023-02-08T06:49:23.247Z,99.99
2023-02-08T06:50:24.235Z,99.99
2023-02-08T06:51:24.227Z,99.99
2023-02-08T06:52:23.222Z,99.99
2023-02-08T06:53:23.240Z,99.99
2023-02-08T06:54:23.210Z,99.99
2023-02-08T06:55:23.224Z,99.99
2023-02-08T06:56:23.197Z,99.99
2023-02-08T06:57:23.211Z,99.99
2023-02-08T06:58:23.207Z,99.99
2023-02-08T06:59:23.174Z,99.99
2023-02-08T07:00:23.197Z,99.99
2023-02-08T07:01:23.203Z,99.99
2023-02-08T07:02:23.192Z,99.99
2023-02-08T07:03:23.144Z,99.99
2023-02-08T07:04:23.142Z,99.99
2023-02-08T07:05:23.162Z,99.68
2023-02-08T07:06:23.131Z,99.73
2023-02-08T07:07:23.133Z,99.15
2023-02-08T07:08:23.109Z,99.30
2023-02-08T07:09:23.106Z,99.47
2023-02-08T07:10:23.125Z,99.68
2023-02-08T07:11:23.092Z,99.90
2023-02-08T07:12:23.078Z,99.79
2023-02-08T07:13:23.071Z,99.68
2023-02-08T07:14:23.059Z,99.58
2023-02-08T07:15:23.416Z,99.47
2023-02-08T07:16:23.114Z,99.53
2023-02-08T07:17:23.036Z,99.53
2023-02-08T07:18:23.036Z,99.00
2023-02-08T07:19:23.036Z,99.32
2023-02-08T07:20:23.053Z,99.53
2023-02-08T07:21:23.013Z,99.38
2023-02-08T07:22:23.004Z,98.96
2023-02-08T07:23:22.998Z,99.11
2023-02-08T07:24:22.994Z,99.17
2023-02-08T07:25:23.007Z,99.02
2023-02-08T07:26:22.977Z,98.82
2023-02-08T07:27:25.032Z,98.42
2023-02-08T07:28:22.988Z,98.03
2023-02-08T07:29:22.954Z,96.95
2023-02-08T07:30:22.966Z,95.24
2023-02-08T07:31:22.942Z,93.15
2023-02-08T07:32:22.935Z,90.97
2023-02-08T07:33:22.923Z,89.00
2023-02-08T07:34:22.914Z,87.70
2023-02-08T07:35:22.932Z,86.61
2023-02-08T07:36:22.897Z,86.32
2023-02-08T07:37:22.893Z,86.28
2023-02-08T07:38:22.962Z,85.05
2023-02-08T07:39:22.874Z,83.23
2023-02-08T07:40:22.893Z,82.09
2023-02-08T07:41:22.860Z,81.70
2023-02-08T07:42:22.850Z,80.62
2023-02-08T07:43:22.847Z,79.53
2023-02-08T07:44:22.840Z,80.47
2023-02-08T07:45:22.856Z,79.64
2023-02-08T07:46:22.896Z,79.67
2023-02-08T07:47:22.810Z,78.91
2023-02-08T07:48:22.805Z,78.59
2023-02-08T07:49:22.800Z,78.45
2023-02-08T07:50:22.815Z,77.20
2023-02-08T07:51:22.794Z,77.20
2023-02-08T07:52:22.769Z,76.89
2023-02-08T07:53:22.765Z,77.34
2023-02-08T07:54:22.762Z,77.86
2023-02-08T07:55:22.784Z,78.38
2023-02-08T07:56:22.760Z,77.51
2023-02-08T07:57:22.730Z,77.17
2023-02-08T07:58:23.737Z,76.86
2023-02-08T07:59:22.735Z,76.54
2023-02-08T08:00:22.745Z,77.03
2023-02-08T08:01:23.172Z,76.20
2023-02-08T08:02:23.704Z,74.91
2023-02-08T08:03:22.695Z,75.32
2023-02-08T08:04:22.808Z,76.33
2023-02-08T08:05:22.704Z,74.57
2023-02-08T08:06:22.742Z,74.57
2023-02-08T08:07:22.660Z,74.04
2023-02-08T08:08:22.649Z,74.25
2023-02-08T08:09:22.654Z,74.98
2023-02-08T08:10:22.634Z,74.74
2023-02-08T08:11:22.660Z,74.01
2023-02-08T08:12:22.618Z,74.11
2023-02-08T08:13:22.611Z,74.49
2023-02-08T08:14:22.611Z,74.18
2023-02-08T08:15:22.597Z,74.49
2023-02-08T08:16:22.728Z,74.46
2023-02-08T08:17:22.581Z,74.05
2023-02-08T08:18:22.576Z,74.05
2023-02-08T08:19:22.580Z,74.46
2023-02-08T08:20:22.562Z,74.43
2023-02-08T08:21:22.575Z,74.81
2023-02-08T08:22:22.540Z,74.29
2023-02-08T08:23:23.534Z,72.22
2023-02-08T08:24:22.523Z,72.97
2023-02-08T08:25:22.545Z,74.32
2023-02-08T08:26:22.539Z,74.19
2023-02-08T08:27:22.501Z,73.88
2023-02-08T08:28:22.568Z,73.98
2023-02-08T08:29:22.555Z,72.63
2023-02-08T08:30:22.535Z,73.77
2023-02-08T08:31:22.585Z,72.84
2023-02-08T08:32:22.460Z,73.67
2023-02-08T08:33:22.468Z,72.35
2023-02-08T08:34:22.444Z,72.22
2023-02-08T08:35:22.443Z,74.60
2023-02-08T08:36:22.456Z,74.19
2023-02-08T08:37:22.419Z,72.53
2023-02-08T08:38:22.417Z,73.25
2023-02-08T08:39:22.427Z,73.84
2023-02-08T08:40:24.322Z,72.80
2023-02-08T08:41:22.497Z,72.22
2023-02-08T08:42:22.384Z,72.84
2023-02-08T08:43:22.379Z,73.98
2023-02-08T08:44:22.369Z,74.15
2023-02-08T08:45:22.362Z,73.91
2023-02-08T08:46:22.433Z,74.11
2023-02-08T08:47:22.343Z,73.70
2023-02-08T08:48:22.362Z,72.94
2023-02-08T08:49:22.335Z,72.84
2023-02-08T08:50:22.318Z,72.46
2023-02-08T08:51:22.346Z,72.88
2023-02-08T08:52:22.305Z,74.43
2023-02-08T08:53:22.304Z,74.05
2023-02-08T08:54:22.290Z,73.43
2023-02-08T08:55:22.283Z,72.71
2023-02-08T08:56:22.297Z,72.71
2023-02-08T08:57:22.292Z,71.08
2023-02-08T08:58:22.247Z,72.42
2023-02-08T08:59:23.247Z,73.77
2023-02-08T09:00:22.249Z,71.70
2023-02-08T09:01:22.361Z,71.77
2023-02-08T09:02:22.217Z,71.46
2023-02-08T09:03:22.221Z,72.32
2023-02-08T09:04:22.204Z,71.91
2023-02-08T09:05:22.188Z,72.01
2023-02-08T09:06:23.217Z,71.98
2023-02-08T09:07:22.182Z,71.25
2023-02-08T09:08:22.184Z,72.29
2023-02-08T09:09:22.164Z,71.77
2023-02-08T09:10:22.161Z,72.91
2023-02-08T09:11:22.197Z,73.57
2023-02-08T09:12:22.140Z,70.87
2023-02-08T09:13:22.130Z,70.39
2023-02-08T09:14:22.134Z,70.60
2023-02-08T09:15:22.118Z,70.91
2023-02-08T09:16:22.225Z,71.22
2023-02-08T09:17:22.097Z,72.25
2023-02-08T09:18:22.094Z,72.05
2023-02-08T09:19:22.083Z,72.46
2023-02-08T09:20:22.133Z,72.15
2023-02-08T09:21:22.095Z,71.53
2023-02-08T09:22:22.051Z,70.94
2023-02-08T09:23:22.049Z,70.76
2023-02-08T09:24:22.040Z,71.53
2023-02-08T09:25:22.028Z,72.63
2023-02-08T09:26:23.046Z,72.84
2023-02-08T09:27:22.015Z,70.56
2023-02-08T09:28:22.073Z,71.08
2023-02-08T09:29:21.998Z,70.87
2023-02-08T09:30:21.990Z,71.80
2023-02-08T09:31:22.175Z,70.15
2023-02-08T09:32:21.976Z,71.11
2023-02-08T09:33:21.971Z,71.63
2023-02-08T09:34:21.963Z,70.73
2023-02-08T09:35:21.960Z,71.25
2023-02-08T09:36:21.977Z,72.74
2023-02-08T09:37:21.940Z,73.53
2023-02-08T09:38:21.938Z,72.91
2023-02-08T09:39:21.930Z,72.39
2023-02-08T09:40:21.918Z,71.97
2023-02-08T09:41:21.940Z,72.49
2023-02-08T09:42:21.907Z,73.80
2023-02-08T09:43:21.897Z,72.88
2023-02-08T09:44:21.889Z,73.25
2023-02-08T09:45:21.894Z,72.36
2023-02-08T09:46:21.931Z,70.50
2023-02-08T09:47:21.866Z,69.46
2023-02-08T09:48:21.864Z,69.77
2023-02-08T09:49:21.870Z,71.22
2023-02-08T09:50:21.844Z,70.98
2023-02-08T09:51:21.871Z,69.09
2023-02-08T09:52:21.826Z,68.91
2023-02-08T09:53:21.819Z,68.12
2023-02-08T09:54:21.816Z,67.88
2023-02-08T09:55:21.805Z,69.60
2023-02-08T09:56:21.832Z,70.21
2023-02-08T09:57:21.803Z,70.11
2023-02-08T09:58:21.780Z,70.04
2023-02-08T09:59:21.772Z,69.84
2023-02-08T10:00:21.767Z,70.59
2023-02-08T10:01:21.856Z,71.14
2023-02-08T10:02:21.778Z,72.63
2023-02-08T10:03:21.781Z,72.53
2023-02-08T10:04:21.731Z,72.56
2023-02-08T10:05:21.724Z,72.74
2023-02-08T10:06:21.716Z,72.01
2023-02-08T10:07:21.734Z,72.04
2023-02-08T10:08:23.948Z,72.32
2023-02-08T10:09:22.691Z,72.74
2023-02-08T10:10:21.684Z,73.80
2023-02-08T10:11:21.676Z,73.74
2023-02-08T10:12:21.692Z,73.94
2023-02-08T10:13:27.617Z,74.08
2023-02-08T10:14:23.654Z,74.39
2023-02-08T10:15:21.648Z,74.36
2023-02-08T10:16:21.700Z,73.14
2023-02-08T10:17:21.652Z,74.18
2023-02-08T10:18:21.657Z,75.12
2023-02-08T10:19:21.612Z,73.35
2023-02-08T10:20:21.606Z,73.77
2023-02-08T10:21:21.599Z,74.18
2023-02-08T10:22:21.619Z,74.39
2023-02-08T10:23:22.597Z,73.46
2023-02-08T10:24:22.575Z,72.90
2023-02-08T10:25:21.588Z,72.59
2023-02-08T10:26:21.575Z,72.80
2023-02-08T10:27:21.591Z,73.97
2023-02-08T10:28:21.634Z,75.32
2023-02-08T10:29:21.585Z,74.46
2023-02-08T10:30:21.581Z,72.59
2023-02-08T10:31:21.633Z,72.42
2023-02-08T10:32:21.540Z,72.73
2023-02-08T10:33:21.501Z,72.42
2023-02-08T10:34:21.494Z,72.73
2023-02-08T10:35:21.492Z,72.52
2023-02-08T10:36:21.489Z,73.91
2023-02-08T10:37:21.505Z,72.97
2023-02-08T10:38:21.466Z,74.18
2023-02-08T10:39:21.454Z,72.73
2023-02-08T10:40:21.449Z,72.80
2023-02-08T10:41:21.445Z,72.90
2023-02-08T10:42:21.480Z,72.59
2023-02-08T10:43:21.470Z,72.42
2023-02-08T10:44:21.433Z,72.83
2023-02-08T10:45:24.509Z,72.24
2023-02-08T10:46:22.405Z,73.91
2023-02-08T10:47:21.416Z,73.70
2023-02-08T10:48:21.389Z,73.91
2023-02-08T10:49:21.380Z,72.94
2023-02-08T10:50:21.364Z,73.14
2023-02-08T10:51:22.301Z,72.83
2023-02-08T10:52:21.368Z,72.21
2023-02-08T10:53:21.337Z,72.52
2023-02-08T10:54:21.334Z,72.83
2023-02-08T10:55:21.323Z,72.63
2023-02-08T10:56:21.314Z,73.87
2023-02-08T10:57:21.326Z,72.86
2023-02-08T10:58:21.308Z,72.66
2023-02-08T10:59:21.293Z,72.45
2023-02-08T11:00:21.290Z,72.94
2023-02-08T11:01:21.307Z,72.94
2023-02-08T11:02:21.294Z,72.34
2023-02-08T11:03:21.260Z,72.24
2023-02-08T11:04:21.328Z,72.03
2023-02-08T11:05:21.246Z,72.00
2023-02-08T11:06:21.241Z,72.83
2023-02-08T11:07:21.291Z,71.83
2023-02-08T11:08:21.227Z,71.41
2023-02-08T11:09:21.213Z,71.72
2023-02-08T11:10:21.216Z,71.69
2023-02-08T11:11:21.207Z,71.90
2023-02-08T11:12:21.196Z,72.69
2023-02-08T11:13:21.218Z,71.24
2023-02-08T11:14:21.176Z,71.76
2023-02-08T11:15:21.164Z,71.66
2023-02-08T11:16:21.181Z,70.79
2023-02-08T11:17:21.153Z,70.69
2023-02-08T11:18:21.174Z,70.38
2023-02-08T11:19:21.135Z,70.07
2023-02-08T11:20:21.127Z,71.31
2023-02-08T11:21:21.121Z,72.87
2023-02-08T11:22:21.133Z,72.97
2023-02-08T11:23:21.134Z,71.94
2023-02-08T11:24:21.101Z,72.14
2023-02-08T11:25:21.092Z,71.21
2023-02-08T11:26:21.082Z,70.28
2023-02-08T11:27:21.076Z,69.96
2023-02-08T11:28:21.127Z,70.79
2023-02-08T11:29:21.066Z,70.51
2023-02-08T11:30:21.049Z,70.20
2023-02-08T11:31:21.173Z,70.07
2023-02-08T11:32:21.049Z,70.48
2023-02-08T11:33:21.058Z,71.31
2023-02-08T11:34:21.058Z,70.10
2023-02-08T11:35:21.015Z,69.76
2023-02-08T11:36:21.009Z,69.65
2023-02-08T11:37:21.004Z,70.17
2023-02-08T11:38:21.037Z,70.07
2023-02-08T11:39:20.997Z,69.24
2023-02-08T11:40:20.982Z,69.62
2023-02-08T11:41:20.973Z,69.96
2023-02-08T11:42:20.967Z,68.72
2023-02-08T11:43:20.992Z,68.62
2023-02-08T11:44:20.948Z,69.03
2023-02-08T11:45:20.944Z,68.90
2023-02-08T11:46:20.985Z,67.55
2023-02-08T11:47:21.651Z,67.51
2023-02-08T11:48:21.947Z,67.93
2023-02-08T11:49:20.906Z,67.41
2023-02-08T11:50:20.901Z,66.89
2023-02-08T11:51:20.893Z,66.68
2023-02-08T11:52:20.888Z,67.44
2023-02-08T11:53:20.891Z,66.72
2023-02-08T11:54:20.890Z,66.51
2023-02-08T11:55:20.857Z,65.06
2023-02-08T11:56:20.862Z,64.95
2023-02-08T11:57:20.862Z,65.47
2023-02-08T11:58:20.849Z,66.41
2023-02-08T11:59:20.856Z,67.55
2023-02-08T12:00:20.837Z,66.72
2023-02-08T12:01:20.821Z,66.38
2023-02-08T12:02:20.850Z,66.99
2023-02-08T12:03:20.815Z,66.24
2023-02-08T12:04:20.821Z,66.24
2023-02-08T12:05:20.789Z,65.31
2023-02-08T12:06:20.785Z,65.07
2023-02-08T12:07:20.774Z,65.38
2023-02-08T12:08:20.766Z,64.76
2023-02-08T12:09:20.783Z,64.86
2023-02-08T12:10:20.749Z,64.34
2023-02-08T12:11:20.742Z,64.48
2023-02-08T12:12:20.738Z,64.45
2023-02-08T12:13:20.724Z,64.89
2023-02-08T12:14:20.744Z,65.52
2023-02-08T12:15:20.768Z,65.52
2023-02-08T12:16:20.749Z,64.58
2023-02-08T12:17:20.726Z,65.52
2023-02-08T12:18:20.685Z,65.31
2023-02-08T12:19:20.742Z,65.20
2023-02-08T12:20:20.679Z,63.75
2023-02-08T12:21:20.662Z,66.11
2023-02-08T12:22:20.656Z,66.83
2023-02-08T12:23:20.652Z,66.11
2023-02-08T12:24:20.668Z,64.76
2023-02-08T12:25:20.645Z,64.45
2023-02-08T12:26:20.647Z,63.31
2023-02-08T12:27:20.621Z,62.79
2023-02-08T12:28:20.635Z,62.37
2023-02-08T12:29:20.631Z,61.96
2023-02-08T12:30:20.624Z,61.96
2023-02-08T12:31:20.756Z,61.55
2023-02-08T12:32:20.611Z,61.13
2023-02-08T12:33:20.589Z,61.44
2023-02-08T12:34:20.602Z,61.44
2023-02-08T12:35:29.658Z,61.96
2023-02-08T12:36:22.550Z,62.06
2023-02-08T12:37:20.566Z,61.86
2023-02-08T12:38:20.570Z,61.76
2023-02-08T12:39:22.357Z,61.96
2023-02-08T12:40:21.518Z,61.24
2023-02-08T12:41:20.513Z,60.06
2023-02-08T12:42:20.505Z,60.17
2023-02-08T12:43:20.495Z,59.11
2023-02-08T12:44:20.518Z,59.42
2023-02-08T12:45:20.488Z,60.01
2023-02-08T12:46:20.507Z,62.08
2023-02-08T12:47:20.463Z,60.63
2023-02-08T12:48:20.452Z,59.94
2023-02-08T12:49:20.479Z,59.94
2023-02-08T12:50:20.442Z,61.15
2023-02-08T12:51:20.432Z,61.28
2023-02-08T12:52:20.425Z,59.83